Time;durP1;ratioP1;P1;durP2;ratioP2;P2;SDS_P1;SDS_P2;PMS_P1;PMS_P2;Temp;Humidity;BMP_temperature;BMP_pressure;BME280_temperature;BME280_humidity;BME280_pressure;Samples;Min_cycle;Max_cycle;Signal;HPM_P1;HPM_P2
2022/04/05 00:01:16;;;;;;;7.63;7.03;;;;;;;2.49;100.00;96311.63;4988450;28;20301;-56
2022/04/05 00:03:44;;;;;;;8.20;7.60;;;;;;;2.52;100.00;96308.69;5026113;28;20207;-55
2022/04/05 00:06:13;;;;;;;8.07;7.37;;;;;;;2.43;100.00;96301.75;5019260;28;20318;-55
2022/04/05 00:09:34;;;;;;;7.97;7.37;;;;;;;2.44;100.00;96306.00;4995147;28;20215;-55
2022/04/05 00:12:04;;;;;;;7.80;7.10;;;;;;;2.45;100.00;96305.03;4997040;28;20235;-56
2022/04/05 00:14:33;;;;;;;8.33;7.63;;;;;;;2.37;100.00;96305.00;5026692;28;20242;-56
2022/04/05 00:17:02;;;;;;;8.03;7.30;;;;;;;2.43;100.00;96288.69;4992245;28;20208;-57
2022/04/05 00:19:31;;;;;;;8.17;7.47;;;;;;;2.43;100.00;96296.53;5023770;28;20239;-55
2022/04/05 00:21:59;;;;;;;8.03;7.33;;;;;;;2.59;100.00;96286.16;4992058;28;20793;-58
2022/04/05 00:24:28;;;;;;;8.37;7.57;;;;;;;2.67;100.00;96285.41;5026541;28;20220;-55
2022/04/05 00:26:56;;;;;;;8.27;7.47;;;;;;;2.62;100.00;96273.75;5005609;28;20226;-57
2022/04/05 00:29:26;;;;;;;7.60;7.00;;;;;;;2.56;100.00;96283.03;5022598;28;20209;-57
2022/04/05 00:31:54;;;;;;;7.30;6.70;;;;;;;2.63;100.00;96267.56;4986043;28;21395;-55
2022/04/05 00:34:24;;;;;;;8.23;7.30;;;;;;;2.62;100.00;96266.72;5024055;28;20235;-57
2022/04/05 00:36:53;;;;;;;6.97;6.37;;;;;;;2.49;100.00;96271.56;5023523;28;20205;-55
2022/04/05 00:39:22;;;;;;;7.93;7.13;;;;;;;2.58;100.00;96273.25;4998002;28;20212;-57
2022/04/05 00:41:50;;;;;;;7.40;6.70;;;;;;;2.59;100.00;96267.88;5004251;28;20227;-59
2022/04/05 00:44:18;;;;;;;7.50;6.57;;;;;;;2.63;100.00;96257.91;5028643;28;20231;-56
2022/04/05 00:46:49;;;;;;;8.93;6.67;;;;;;;2.58;100.00;96252.31;4982518;28;20255;-52
2022/04/05 00:49:18;;;;;;;7.67;7.03;;;;;;;2.68;100.00;96246.97;5028310;28;20265;-55
2022/04/05 00:51:46;;;;;;;6.47;5.97;;;;;;;2.50;100.00;96240.03;5025615;28;20387;-56
2022/04/05 00:54:16;;;;;;;6.87;6.30;;;;;;;2.58;100.00;96236.63;4993771;28;20232;-57
2022/04/05 00:56:46;;;;;;;6.70;6.00;;;;;;;2.64;100.00;96236.00;4999465;28;20744;-58
2022/04/05 00:59:15;;;;;;;5.97;5.47;;;;;;;2.49;100.00;96234.97;5025271;28;20235;-58
2022/04/05 01:01:43;;;;;;;7.60;7.00;;;;;;;2.50;100.00;96234.81;5023834;28;20282;-57
2022/04/05 01:04:14;;;;;;;6.80;6.10;;;;;;;2.56;100.00;96228.13;4993359;28;20227;-55
2022/04/05 01:06:45;;;;;;;7.37;6.60;;;;;;;2.52;100.00;96218.94;5022320;28;21000;-58
2022/04/05 01:09:14;;;;;;;7.30;6.70;;;;;;;2.67;100.00;96221.78;4999723;28;20280;-57
2022/04/05 01:11:42;;;;;;;6.50;5.90;;;;;;;2.56;100.00;96228.94;4995157;28;20334;-58
2022/04/05 01:14:10;;;;;;;8.10;7.30;;;;;;;2.62;100.00;96222.25;4999020;28;20288;-54
2022/04/05 01:16:39;;;;;;;7.90;7.20;;;;;;;2.68;100.00;96219.03;5019528;28;20668;-55
2022/04/05 01:19:08;;;;;;;6.50;5.90;;;;;;;2.50;100.00;96213.91;4985160;28;20587;-54
2022/04/05 01:21:38;;;;;;;7.30;6.70;;;;;;;2.63;100.00;96212.63;5026495;28;20318;-56
2022/04/05 01:24:10;;;;;;;7.63;6.93;;;;;;;2.49;100.00;96216.66;5004311;28;20196;-53
2022/04/05 01:26:43;;;;;;;7.40;6.80;;;;;;;2.61;100.00;96210.16;5023881;28;20220;-55
2022/04/05 01:29:12;;;;;;;7.37;6.77;;;;;;;2.56;100.00;96202.81;4998970;28;20314;-57
2022/04/05 01:31:43;;;;;;;6.40;5.80;;;;;;;2.56;100.00;96202.81;5026734;28;20215;-58
2022/04/05 01:34:12;;;;;;;6.80;6.20;;;;;;;2.66;100.00;96201.84;4984163;28;20298;-58
2022/04/05 01:36:41;;;;;;;7.93;7.27;;;;;;;2.63;100.00;96196.94;5023570;28;20203;-52
2022/04/05 01:39:11;;;;;;;6.70;6.17;;;;;;;2.68;100.00;96189.44;5022533;28;20826;-56
2022/04/05 01:41:40;;;;;;;7.20;6.13;;;;;;;2.57;100.00;96188.75;5001822;28;20346;-58
2022/04/05 01:44:10;;;;;;;6.33;5.83;;;;;;;2.62;100.00;96195.28;5002729;28;20207;-57
2022/04/05 01:46:39;;;;;;;7.00;6.40;;;;;;;2.67;100.00;96190.41;5033529;28;20628;-56
2022/04/05 01:49:08;;;;;;;6.27;5.67;;;;;;;2.62;100.00;96190.06;4999769;28;20755;-55
2022/04/05 01:51:37;;;;;;;6.53;5.93;;;;;;;2.58;100.00;96186.94;5031064;28;20226;-60
2022/04/05 01:54:07;;;;;;;7.73;5.77;;;;;;;2.49;100.00;96175.66;5029615;28;20210;-59
2022/04/05 01:56:43;;;;;;;7.43;6.77;;;;;;;2.60;100.00;96187.59;5002329;28;20258;-56
2022/04/05 01:59:11;;;;;;;6.77;6.20;;;;;;;2.64;100.00;96185.50;5006069;28;20351;-58
2022/04/05 02:01:40;;;;;;;6.50;5.97;;;;;;;2.67;100.00;96180.78;5033276;28;21242;-57
2022/04/05 02:04:09;;;;;;;7.50;6.53;;;;;;;2.62;100.00;96185.63;5027726;28;20725;-54
2022/04/05 02:06:37;;;;;;;6.47;5.93;;;;;;;2.66;100.00;96181.75;4995100;28;20294;-57
2022/04/05 02:09:06;;;;;;;7.67;7.00;;;;;;;2.65;100.00;96174.88;5025355;28;20318;-56
2022/04/05 02:11:36;;;;;;;6.43;5.87;;;;;;;2.71;100.00;96178.66;4998063;28;20339;-55
2022/04/05 02:14:04;;;;;;;6.23;5.83;;;;;;;2.66;100.00;96171.28;5008301;28;20208;-56
2022/04/05 02:16:32;;;;;;;6.57;6.07;;;;;;;2.60;100.00;96167.50;5032445;28;20614;-58
2022/04/05 02:19:00;;;;;;;7.63;7.03;;;;;;;2.60;100.00;96172.72;5029935;28;20230;-57
2022/04/05 02:21:29;;;;;;;7.07;6.40;;;;;;;2.67;100.00;96166.88;4995540;28;20273;-58
2022/04/05 02:23:57;;;;;;;6.77;6.17;;;;;;;2.77;100.00;96162.31;5030002;28;20626;-57
2022/04/05 02:26:27;;;;;;;7.47;6.77;;;;;;;2.70;100.00;96170.00;5032345;28;20196;-59
2022/04/05 02:28:57;;;;;;;8.50;6.20;;;;;;;2.67;100.00;96156.41;4998552;28;20302;-57
2022/04/05 02:31:25;;;;;;;7.20;6.57;;;;;;;2.67;100.00;96162.47;5012716;28;20220;-58
2022/04/05 02:33:54;;;;;;;6.70;6.10;;;;;;;2.67;100.00;96162.47;5031025;28;20281;-57
2022/04/05 02:36:22;;;;;;;8.20;7.30;;;;;;;2.72;100.00;96156.75;4989240;28;20215;-56
2022/04/05 02:38:50;;;;;;;8.10;7.30;;;;;;;2.64;100.00;96162.75;5030833;28;20884;-55
2022/04/05 02:41:18;;;;;;;7.63;6.80;;;;;;;2.64;100.00;96160.13;5029863;28;20326;-57
2022/04/05 02:43:47;;;;;;;8.30;7.60;;;;;;;2.61;100.00;96160.47;5007308;28;20231;-56
2022/04/05 02:46:16;;;;;;;7.13;6.57;;;;;;;2.69;100.00;96157.91;5005473;28;20290;-57
2022/04/05 02:48:46;;;;;;;7.57;6.87;;;;;;;2.69;100.00;96154.44;5032864;28;20230;-56
2022/04/05 02:51:15;;;;;;;8.30;7.43;;;;;;;2.73;100.00;96147.91;4997273;28;21322;-57
2022/04/05 02:53:43;;;;;;;7.97;7.00;;;;;;;2.72;100.00;96154.97;5028171;28;20603;-54
2022/04/05 02:56:13;;;;;;;7.17;6.57;;;;;;;2.68;100.00;96147.56;5026776;28;20998;-60
2022/04/05 02:58:41;;;;;;;7.53;6.77;;;;;;;2.64;100.00;96149.69;5006921;28;20892;-59
2022/04/05 03:01:09;;;;;;;7.47;6.77;;;;;;;2.57;100.00;96157.38;5008782;28;20243;-57
2022/04/05 03:03:39;;;;;;;8.40;7.60;;;;;;;2.68;100.00;96158.03;5027394;28;20284;-56
2022/04/05 03:06:10;;;;;;;7.80;7.10;;;;;;;2.77;100.00;96151.84;5002821;28;20214;-56
2022/04/05 03:08:38;;;;;;;7.93;7.23;;;;;;;2.78;100.00;96152.69;5028594;28;20227;-56
2022/04/05 03:11:06;;;;;;;8.00;7.23;;;;;;;2.55;100.00;96148.03;5027577;28;20219;-54
2022/04/05 03:13:35;;;;;;;7.57;6.97;;;;;;;2.57;100.00;96152.13;5000596;28;20200;-56
2022/04/05 03:16:03;;;;;;;7.57;6.90;;;;;;;2.78;100.00;96155.28;5001658;28;20231;-58
2022/04/05 03:18:32;;;;;;;7.30;6.70;;;;;;;2.65;100.00;96148.72;5007203;28;20320;-57
2022/04/05 03:21:01;;;;;;;6.70;6.10;;;;;;;2.60;100.00;96146.59;5021277;28;20274;-56
2022/04/05 03:23:30;;;;;;;8.75;7.95;;;;;;;2.56;100.00;96145.28;4991999;28;20480;-58
2022/04/05 03:25:58;;;;;;;7.90;7.20;;;;;;;2.61;100.00;96147.38;5017874;28;20737;-57
2022/04/05 03:28:26;;;;;;;7.93;7.07;;;;;;;2.70;100.00;96151.69;5024899;28;20305;-56
2022/04/05 03:30:54;;;;;;;7.30;6.67;;;;;;;2.60;100.00;96151.81;4993497;28;20242;-56
2022/04/05 03:33:23;;;;;;;6.47;5.97;;;;;;;2.60;100.00;96143.13;4998858;28;20203;-58
2022/04/05 03:35:54;;;;;;;7.20;6.60;;;;;;;2.66;100.00;96142.53;5020369;28;20205;-54
2022/04/05 03:38:24;;;;;;;8.17;7.37;;;;;;;2.60;100.00;96145.75;4991697;28;20793;-51
2022/04/05 03:40:53;;;;;;;7.00;6.40;;;;;;;2.44;100.00;96147.34;5019444;28;20315;-55
2022/04/05 03:43:21;;;;;;;7.87;7.27;;;;;;;2.40;100.00;96134.75;4997808;28;20679;-54
2022/04/05 03:45:51;;;;;;;7.40;6.80;;;;;;;2.33;100.00;96142.41;5004832;28;20196;-54
2022/04/05 03:48:19;;;;;;;8.00;7.30;;;;;;;2.34;100.00;96146.66;5004530;28;20632;-55
2022/04/05 03:50:48;;;;;;;8.33;7.53;;;;;;;2.39;100.00;96138.34;5001076;28;20295;-56
2022/04/05 03:53:16;;;;;;;7.67;6.97;;;;;;;2.43;100.00;96134.41;5001527;28;20235;-58
2022/04/05 03:55:46;;;;;;;8.17;7.40;;;;;;;2.51;100.00;96139.69;5026168;28;20240;-54
2022/04/05 03:58:14;;;;;;;7.93;7.23;;;;;;;2.44;100.00;96141.28;5023107;28;20291;-54
2022/04/05 04:00:42;;;;;;;7.87;7.27;;;;;;;2.40;100.00;96140.81;5024689;28;20259;-54
2022/04/05 04:03:10;;;;;;;7.40;6.73;;;;;;;2.34;100.00;96138.00;5006643;28;20350;-58
2022/04/05 04:05:39;;;;;;;7.13;6.43;;;;;;;2.39;100.00;96135.72;4985719;28;20303;-56
2022/04/05 04:08:07;;;;;;;8.07;7.47;;;;;;;2.39;100.00;96131.31;5023473;28;20288;-54
2022/04/05 04:10:35;;;;;;;7.30;6.77;;;;;;;2.41;100.00;96131.97;4992462;28;20273;-55
2022/04/05 04:13:05;;;;;;;7.43;6.77;;;;;;;2.31;100.00;96137.34;5026556;28;20885;-54
2022/04/05 04:15:33;;;;;;;7.73;7.03;;;;;;;2.27;100.00;96138.63;5027937;28;20286;-56
2022/04/05 04:18:02;;;;;;;7.37;6.67;;;;;;;2.33;100.00;96139.81;5000235;28;20779;-58
2022/04/05 04:20:30;;;;;;;7.83;7.13;;;;;;;2.20;100.00;96137.63;4986348;28;20293;-55
2022/04/05 04:22:58;;;;;;;7.50;6.83;;;;;;;2.14;100.00;96138.25;5021892;28;20197;-54
2022/04/05 04:25:27;;;;;;;8.87;8.17;;;;;;;2.14;100.00;96133.84;5002630;28;20398;-54
2022/04/05 04:27:55;;;;;;;7.73;7.03;;;;;;;2.14;100.00;96139.06;5026012;28;20928;-54
2022/04/05 04:30:24;;;;;;;7.27;6.67;;;;;;;2.08;100.00;96144.91;5024442;28;20220;-58
2022/04/05 04:32:53;;;;;;;8.30;7.70;;;;;;;2.10;100.00;96147.38;5002078;28;20892;-56
2022/04/05 04:35:22;;;;;;;7.90;7.30;;;;;;;2.07;100.00;96142.44;5012512;28;20250;-55
2022/04/05 04:37:50;;;;;;;9.00;7.70;;;;;;;2.02;100.00;96129.88;5005029;28;20221;-56
2022/04/05 04:40:18;;;;;;;8.10;7.60;;;;;;;2.02;100.00;96140.31;5025549;28;20272;-57
2022/04/05 04:42:47;;;;;;;8.67;7.83;;;;;;;1.97;100.00;96122.47;4995463;28;20207;-57
2022/04/05 04:45:15;;;;;;;8.23;7.43;;;;;;;1.97;100.00;96139.97;5027963;28;20580;-60
2022/04/05 04:47:45;;;;;;;8.67;7.87;;;;;;;2.02;100.00;96140.31;5018307;28;21041;-56
2022/04/05 04:50:13;;;;;;;8.27;7.57;;;;;;;1.94;100.00;96146.31;4998842;28;20282;-56
2022/04/05 04:52:42;;;;;;;8.43;7.73;;;;;;;1.89;100.00;96148.56;5007513;28;20989;-56
2022/04/05 04:55:10;;;;;;;8.47;7.73;;;;;;;2.00;100.00;96142.28;5022630;28;21051;-55
2022/04/05 04:57:38;;;;;;;9.03;8.23;;;;;;;1.93;100.00;96142.06;4991417;28;20290;-59
2022/04/05 05:00:07;;;;;;;8.17;7.40;;;;;;;1.99;100.00;96144.03;5025312;28;20265;-57
2022/04/05 05:02:45;;;;;;;9.07;8.00;;;;;;;1.83;100.00;96143.97;5024117;28;20992;-56
2022/04/05 05:05:14;;;;;;;9.33;8.47;;;;;;;1.84;100.00;96143.00;4980414;28;20295;-57
2022/04/05 05:07:44;;;;;;;8.40;7.70;;;;;;;1.85;100.00;96161.13;5008156;28;20221;-55
2022/04/05 05:10:12;;;;;;;9.30;8.50;;;;;;;1.88;100.00;96155.56;5026875;28;20332;-59
2022/04/05 05:12:41;;;;;;;7.67;7.03;;;;;;;1.94;100.00;96158.56;4978068;28;20235;-53
2022/04/05 05:15:10;;;;;;;8.83;8.00;;;;;;;1.97;100.00;96153.84;4995459;28;20843;-55
2022/04/05 05:17:38;;;;;;;9.03;8.00;;;;;;;2.03;100.00;96158.44;5007808;28;20274;-55
2022/04/05 05:20:10;;;;;;;8.13;7.43;;;;;;;2.02;100.00;96163.84;5003679;28;20223;-61
2022/04/05 05:22:39;;;;;;;8.23;7.40;;;;;;;1.93;100.00;96170.81;5006348;28;20216;-60
2022/04/05 05:25:08;;;;;;;8.63;7.93;;;;;;;1.85;100.00;96174.19;5009248;28;20291;-58
2022/04/05 05:27:37;;;;;;;8.23;7.53;;;;;;;1.92;100.00;96174.38;5020907;28;20287;-59
2022/04/05 05:30:08;;;;;;;8.63;7.83;;;;;;;1.96;100.00;96170.47;4990952;28;20757;-61
2022/04/05 05:32:43;;;;;;;8.73;7.93;;;;;;;1.98;100.00;96181.59;5003110;28;21363;-58
2022/04/05 05:35:14;;;;;;;9.37;8.47;;;;;;;1.83;100.00;96172.72;5026409;28;20234;-56
2022/04/05 05:37:43;;;;;;;9.07;8.27;;;;;;;1.87;100.00;96180.06;4985379;28;20211;-59
2022/04/05 05:40:11;;;;;;;8.70;7.90;;;;;;;1.83;100.00;96183.97;5003098;28;20291;-58
2022/04/05 05:42:48;;;;;;;8.43;7.73;;;;;;;1.98;100.00;96175.56;5009018;28;20223;-56
2022/04/05 05:45:16;;;;;;;9.13;8.43;;;;;;;2.00;100.00;96176.22;4990658;28;20215;-57
2022/04/05 05:47:45;;;;;;;9.43;8.00;;;;;;;1.90;100.00;96152.81;5011113;28;20698;-57
2022/04/05 05:50:15;;;;;;;8.80;8.00;;;;;;;2.08;100.00;96170.22;5024837;28;20327;-57
2022/04/05 05:52:44;;;;;;;8.33;7.73;;;;;;;1.99;100.00;96175.41;4999099;28;20310;-58
2022/04/05 05:55:14;;;;;;;8.63;7.90;;;;;;;1.95;100.00;96178.50;5014043;28;20227;-54
2022/04/05 05:57:42;;;;;;;8.57;7.97;;;;;;;1.98;100.00;96170.34;5005140;28;20295;-55
2022/04/05 06:00:16;;;;;;;9.00;8.27;;;;;;;2.03;100.00;96179.34;4990925;28;20697;-56
2022/04/05 06:02:45;;;;;;;10.33;8.77;;;;;;;1.98;100.00;96165.94;5010379;28;21212;-58
2022/04/05 06:05:15;;;;;;;9.03;8.23;;;;;;;2.22;100.00;96195.78;5026585;28;20294;-54
2022/04/05 06:07:43;;;;;;;9.07;8.30;;;;;;;2.03;100.00;96195.03;4992047;28;20238;-58
2022/04/05 06:10:13;;;;;;;9.57;8.63;;;;;;;2.15;100.00;96192.97;5023726;28;20319;-56
2022/04/05 06:12:42;;;;;;;8.80;7.90;;;;;;;2.15;100.00;96192.16;4992252;28;20227;-57
2022/04/05 06:15:12;;;;;;;8.43;7.63;;;;;;;2.12;100.00;96210.75;5018447;28;20758;-56
2022/04/05 06:17:44;;;;;;;8.80;8.10;;;;;;;2.14;100.00;96209.63;5005044;28;22317;-57
2022/04/05 06:20:16;;;;;;;9.60;8.70;;;;;;;2.24;100.00;96219.13;5013873;28;20333;-56
2022/04/05 06:22:45;;;;;;;8.83;8.03;;;;;;;2.19;100.00;96224.00;5003192;28;20226;-55
2022/04/05 06:25:18;;;;;;;9.17;8.37;;;;;;;2.31;100.00;96226.22;5010895;28;21580;-58
2022/04/05 06:27:47;;;;;;;8.53;7.80;;;;;;;2.45;100.00;96230.03;5022874;28;20207;-60
2022/04/05 06:30:16;;;;;;;9.50;8.63;;;;;;;2.36;100.00;96227.53;4997670;28;20326;-54
2022/04/05 06:32:46;;;;;;;8.50;7.70;;;;;;;2.56;100.00;96234.19;5016521;28;20946;-56
2022/04/05 06:35:16;;;;;;;9.27;8.30;;;;;;;2.46;100.00;96226.44;5017525;28;20215;-55
2022/04/05 06:37:45;;;;;;;9.33;8.53;;;;;;;2.53;100.00;96236.28;5009778;28;20324;-53
2022/04/05 06:40:15;;;;;;;7.93;7.23;;;;;;;2.51;100.00;96222.53;5014989;28;20849;-55
2022/04/05 06:42:44;;;;;;;8.50;7.73;;;;;;;2.49;100.00;96232.34;5019122;28;20220;-60
2022/04/05 06:45:13;;;;;;;8.43;7.50;;;;;;;2.58;100.00;96226.16;5008845;28;20665;-57
2022/04/05 06:47:42;;;;;;;8.67;7.87;;;;;;;2.64;100.00;96222.13;4997820;28;20296;-59
2022/04/05 06:50:12;;;;;;;9.63;8.80;;;;;;;2.58;100.00;96211.31;5012302;28;20738;-56
2022/04/05 06:52:42;;;;;;;8.57;7.60;;;;;;;2.82;100.00;96211.53;5009927;28;20231;-56
2022/04/05 06:55:12;;;;;;;8.33;7.53;;;;;;;2.89;100.00;96208.13;5017486;28;20254;-56
2022/04/05 06:57:41;;;;;;;8.47;7.57;;;;;;;2.88;100.00;96224.00;5017464;28;20914;-58
2022/04/05 07:00:10;;;;;;;7.67;7.17;;;;;;;2.92;100.00;96217.44;5015608;28;20299;-59
2022/04/05 07:02:39;;;;;;;8.67;7.97;;;;;;;3.09;100.00;96220.13;4998704;28;21005;-57
2022/04/05 07:05:09;;;;;;;8.30;7.60;;;;;;;3.13;100.00;96226.69;5013658;28;20204;-59
2022/04/05 07:07:38;;;;;;;7.80;7.13;;;;;;;3.11;100.00;96221.59;5027944;28;20288;-57
2022/04/05 07:10:10;;;;;;;8.30;7.70;;;;;;;3.29;100.00;96223.28;4997984;28;20294;-59
2022/04/05 07:12:38;;;;;;;7.33;6.73;;;;;;;3.02;100.00;96218.13;5012666;28;20255;-59
2022/04/05 07:15:10;;;;;;;7.43;6.83;;;;;;;3.15;100.00;96219.47;5029368;28;21355;-58
2022/04/05 07:17:39;;;;;;;8.40;7.70;;;;;;;3.31;100.00;96223.91;4979368;28;20302;-57
2022/04/05 07:20:27;;;;;;;7.60;7.00;;;;;;;3.22;100.00;96220.47;5011771;28;20227;-55
2022/04/05 07:22:56;;;;;;;8.43;7.67;;;;;;;3.30;100.00;96225.72;5028267;28;20290;-57
2022/04/05 07:25:26;;;;;;;7.70;7.00;;;;;;;3.50;100.00;96211.47;4991946;28;20303;-56
2022/04/05 07:27:54;;;;;;;8.20;7.47;;;;;;;3.65;100.00;96217.72;5017200;28;20262;-56
2022/04/05 07:30:24;;;;;;;7.67;7.07;;;;;;;3.72;100.00;96225.72;5021997;28;20231;-57
2022/04/05 07:32:52;;;;;;;8.13;7.33;;;;;;;3.88;100.00;96225.72;4980546;28;21349;-57
2022/04/05 07:35:21;;;;;;;8.37;7.57;;;;;;;4.05;100.00;96223.91;5025650;28;20211;-58
2022/04/05 07:37:49;;;;;;;8.57;7.77;;;;;;;4.18;100.00;96206.84;5010956;28;20306;-57
2022/04/05 07:40:18;;;;;;;7.70;7.10;;;;;;;4.27;100.00;96208.44;5007391;28;21098;-58
2022/04/05 07:42:48;;;;;;;7.77;7.17;;;;;;;4.31;100.00;96212.38;5006366;28;20227;-57
2022/04/05 07:45:17;;;;;;;8.33;7.63;;;;;;;4.20;100.00;96216.19;5025322;28;20235;-55
2022/04/05 07:47:45;;;;;;;9.10;8.20;;;;;;;4.20;100.00;96225.84;5008722;28;20314;-56
2022/04/05 07:50:14;;;;;;;7.33;6.73;;;;;;;4.16;100.00;96225.34;4992768;28;20300;-57
2022/04/05 07:52:44;;;;;;;7.57;6.97;;;;;;;3.90;100.00;96226.38;5015462;28;21719;-57
2022/04/05 07:55:13;;;;;;;10.33;8.43;;;;;;;3.89;100.00;96230.00;5009543;28;20297;-57
2022/04/05 07:57:41;;;;;;;8.40;7.67;;;;;;;4.00;100.00;96230.63;5017994;28;20865;-57
2022/04/05 08:00:12;;;;;;;6.77;6.27;;;;;;;3.98;100.00;96238.66;5016122;28;20294;-55
2022/04/05 08:02:40;;;;;;;7.30;6.73;;;;;;;4.02;100.00;96239.13;5011575;28;20234;-58
2022/04/05 08:05:14;;;;;;;7.90;7.20;;;;;;;4.00;100.00;96247.19;4998869;28;20231;-55
2022/04/05 08:07:43;;;;;;;7.83;7.23;;;;;;;3.89;100.00;96252.75;5014106;28;20317;-56
2022/04/05 08:10:13;;;;;;;7.27;6.60;;;;;;;4.09;100.00;96250.59;5030066;28;20235;-56
2022/04/05 08:12:43;;;;;;;7.97;7.27;;;;;;;3.95;100.00;96248.66;5001168;28;20235;-55
2022/04/05 08:15:14;;;;;;;7.30;6.70;;;;;;;4.09;100.00;96247.16;5013844;28;20207;-55
2022/04/05 08:17:42;;;;;;;7.93;7.23;;;;;;;4.04;100.00;96251.13;5013933;28;20211;-55
2022/04/05 08:20:12;;;;;;;7.63;6.93;;;;;;;3.95;100.00;96257.31;5014144;28;20719;-53
2022/04/05 08:22:40;;;;;;;7.67;7.07;;;;;;;3.93;100.00;96255.88;4987992;28;20491;-57
2022/04/05 08:25:10;;;;;;;8.00;7.30;;;;;;;3.91;100.00;96269.97;5013295;28;20561;-58
2022/04/05 08:27:39;;;;;;;8.63;7.60;;;;;;;3.98;100.00;96264.06;4981770;28;20207;-58
2022/04/05 08:30:09;;;;;;;8.13;7.30;;;;;;;3.97;100.00;96270.28;5026969;28;20223;-57
2022/04/05 08:32:42;;;;;;;7.53;6.90;;;;;;;4.31;100.00;96274.50;4990873;28;20665;-56
2022/04/05 08:35:11;;;;;;;7.73;7.13;;;;;;;4.27;100.00;96265.34;5019828;28;20599;-57
2022/04/05 08:37:39;;;;;;;7.03;6.53;;;;;;;4.24;100.00;96271.72;5001904;28;20308;-59
2022/04/05 08:40:12;;;;;;;7.13;6.43;;;;;;;4.37;100.00;96273.03;5011880;28;20295;-56
2022/04/05 08:42:42;;;;;;;7.20;6.67;;;;;;;4.45;100.00;96258.06;4992637;28;20318;-58
2022/04/05 08:45:11;;;;;;;7.23;6.70;;;;;;;4.48;100.00;96260.34;5012273;28;20287;-56
2022/04/05 08:47:46;;;;;;;6.87;6.37;;;;;;;4.83;100.00;96267.97;5011873;28;20554;-56
2022/04/05 08:50:16;;;;;;;7.20;6.70;;;;;;;4.63;100.00;96257.84;5008729;28;20215;-56
2022/04/05 08:52:44;;;;;;;7.80;7.10;;;;;;;4.99;100.00;96276.75;4994814;28;20547;-58
2022/04/05 08:55:13;;;;;;;6.87;6.37;;;;;;;5.07;100.00;96269.66;5010688;28;20508;-56
2022/04/05 08:57:41;;;;;;;6.70;6.10;;;;;;;5.21;100.00;96272.53;5005594;28;21283;-59
2022/04/05 09:00:11;;;;;;;6.43;6.03;;;;;;;5.15;100.00;96281.94;5010269;28;20204;-54
2022/04/05 09:02:53;;;;;;;7.10;6.60;;;;;;;5.19;100.00;96272.72;5009822;28;20717;-58
2022/04/05 09:05:32;;;;;;;7.80;6.97;;;;;;;5.14;100.00;96272.41;5006484;28;20299;-55
2022/04/05 09:08:19;;;;;;;6.77;6.20;;;;;;;4.79;100.00;96287.66;4995807;28;20265;-57
2022/04/05 09:10:49;;;;;;;6.47;6.07;;;;;;;4.89;100.00;96290.91;5015431;28;20326;-56
2022/04/05 09:13:20;;;;;;;6.20;5.70;;;;;;;5.02;100.00;96281.66;5016098;28;20317;-55
2022/04/05 09:15:51;;;;;;;6.93;6.33;;;;;;;5.10;100.00;96286.84;5009017;28;20218;-58
2022/04/05 09:18:33;;;;;;;6.07;5.63;;;;;;;5.16;100.00;96280.94;5011950;28;20218;-57
2022/04/05 09:21:01;;;;;;;6.67;6.17;;;;;;;5.11;100.00;96290.31;5010669;28;20273;-59
2022/04/05 09:23:31;;;;;;;6.73;6.13;;;;;;;5.30;100.00;96286.44;4989961;28;20325;-58
2022/04/05 09:26:00;;;;;;;6.23;5.77;;;;;;;5.06;100.00;96289.03;5024996;28;20274;-59
2022/04/05 09:28:31;;;;;;;6.97;6.47;;;;;;;5.28;100.00;96285.81;4991120;28;20633;-52
2022/04/05 09:31:02;;;;;;;6.00;5.50;;;;;;;5.27;100.00;96289.41;5007564;28;20672;-56
2022/04/05 09:33:33;;;;;;;6.70;6.20;;;;;;;5.52;100.00;96291.91;5010069;28;20826;-51
2022/04/05 09:36:11;;;;;;;6.40;5.93;;;;;;;5.61;100.00;96290.88;5012439;28;20219;-53
2022/04/05 09:38:40;;;;;;;5.63;5.30;;;;;;;5.54;100.00;96293.34;4991539;28;20951;-60
2022/04/05 09:41:17;;;;;;;5.97;5.57;;;;;;;5.62;100.00;96292.50;5023141;28;20658;-55
2022/04/05 09:43:55;;;;;;;6.17;5.77;;;;;;;5.54;100.00;96290.72;5020568;28;20466;-60
2022/04/05 09:46:23;;;;;;;5.93;5.53;;;;;;;5.52;100.00;96289.28;4989087;28;20214;-55
2022/04/05 09:49:20;;;;;;;6.87;6.37;;;;;;;5.32;100.00;96295.81;5013399;28;20683;-60
2022/04/05 09:51:52;;;;;;;5.87;5.47;;;;;;;5.51;100.00;96288.44;4963023;28;20629;-57
2022/04/05 09:54:28;;;;;;;6.20;5.60;;;;;;;5.69;100.00;96284.75;4950058;28;20359;-56
2022/04/05 09:57:03;;;;;;;6.00;5.60;;;;;;;5.49;100.00;96293.06;4966982;28;20311;-58
2022/04/05 09:59:39;;;;;;;6.53;6.13;;;;;;;5.47;100.00;96293.22;4957139;28;20342;-56
2022/04/05 10:02:15;;;;;;;6.53;5.80;;;;;;;5.53;100.00;96286.47;4969668;28;20254;-59
2022/04/05 10:05:02;;;;;;;6.53;6.03;;;;;;;5.61;100.00;96291.66;4970213;28;20213;-56
2022/04/05 10:07:31;;;;;;;5.50;5.10;;;;;;;5.69;100.00;96293.44;4967055;28;20426;-56
2022/04/05 10:10:01;;;;;;;5.57;5.17;;;;;;;5.52;100.00;96291.91;4949095;28;20351;-58
2022/04/05 10:12:30;;;;;;;5.50;5.10;;;;;;;5.55;100.00;96284.47;4968057;28;20332;-57
2022/04/05 10:15:00;;;;;;;5.20;4.90;;;;;;;5.53;100.00;96294.34;4983703;28;20229;-55
2022/04/05 10:17:29;;;;;;;5.90;5.50;;;;;;;5.73;100.00;96294.72;4947180;28;20200;-58
2022/04/05 10:19:59;;;;;;;6.17;5.60;;;;;;;5.93;100.00;96295.06;4983911;28;20287;-60
2022/04/05 10:22:28;;;;;;;5.80;5.33;;;;;;;5.93;100.00;96310.03;4957377;28;20311;-55
2022/04/05 10:24:56;;;;;;;6.00;5.47;;;;;;;5.89;100.00;96298.22;4953406;28;20248;-54
2022/04/05 10:27:26;;;;;;;5.70;5.30;;;;;;;5.72;100.00;96300.16;4988065;28;20298;-54
2022/04/05 10:29:59;;;;;;;5.77;5.37;;;;;;;5.92;100.00;96292.63;5027117;28;20244;-53
2022/04/05 10:32:39;;;;;;;5.80;5.37;;;;;;;5.84;100.00;96296.13;4994584;28;20857;-56
2022/04/05 10:35:09;;;;;;;5.57;5.20;;;;;;;5.77;100.00;96303.06;5028615;28;20655;-55
2022/04/05 10:37:40;;;;;;;4.90;4.50;;;;;;;5.83;100.00;96296.28;4997530;28;20228;-57
2022/04/05 10:40:17;;;;;;;6.03;5.57;;;;;;;6.01;100.00;96288.13;4997417;28;20219;-56
2022/04/05 10:42:47;;;;;;;5.23;4.87;;;;;;;6.18;100.00;96291.44;5012562;28;21082;-58
2022/04/05 10:45:18;;;;;;;4.77;4.47;;;;;;;5.96;100.00;96288.63;5027354;28;20204;-57
2022/04/05 10:48:18;;;;;;;5.23;4.80;;;;;;;5.94;100.00;96285.38;4996952;28;20505;-58
2022/04/05 10:51:30;;;;;;;4.70;4.40;;;;;;;5.79;100.00;96288.75;4969420;28;20659;-54
2022/04/05 10:54:19;;;;;;;4.93;4.63;;;;;;;6.10;100.00;96284.44;4953575;28;20324;-56
2022/04/05 10:57:29;;;;;;;5.10;4.70;;;;;;;6.33;100.00;96289.66;4960467;28;20201;-55
2022/04/05 11:00:01;;;;;;;5.30;5.00;;;;;;;6.65;100.00;96282.44;4957580;28;20293;-55
2022/04/05 11:02:37;;;;;;;4.80;4.50;;;;;;;6.75;100.00;96284.78;4944352;28;20221;-56
2022/04/05 11:05:32;;;;;;;4.43;4.13;;;;;;;6.83;100.00;96278.59;4953554;28;20250;-57
2022/04/05 11:08:26;;;;;;;5.00;4.60;;;;;;;6.86;100.00;96283.50;4953182;28;20300;-59
2022/04/05 11:10:55;;;;;;;4.37;4.07;;;;;;;6.86;100.00;96280.06;4936770;28;20320;-55
2022/04/05 11:13:32;;;;;;;4.53;4.23;;;;;;;6.83;100.00;96275.97;4953587;28;20234;-57
2022/04/05 11:16:02;;;;;;;4.67;4.37;;;;;;;6.33;100.00;96278.31;4969551;28;20338;-57
2022/04/05 11:18:33;;;;;;;4.80;4.40;;;;;;;6.65;100.00;96271.91;4947415;28;20686;-56
2022/04/05 11:21:06;;;;;;;4.37;4.10;;;;;;;6.63;100.00;96281.81;4953905;28;20785;-55
2022/04/05 11:23:51;;;;;;;4.60;4.30;;;;;;;6.66;100.00;96276.19;4952634;28;20502;-56
2022/04/05 11:26:33;;;;;;;4.60;4.17;;;;;;;7.09;100.00;96270.22;4977841;28;20216;-56
2022/04/05 11:29:03;;;;;;;3.97;3.73;;;;;;;6.79;100.00;96274.72;5028578;28;20543;-59
2022/04/05 11:31:37;;;;;;;4.20;3.90;;;;;;;6.89;100.00;96262.06;5011083;28;20887;-59
2022/04/05 11:34:34;;;;;;;4.30;4.00;;;;;;;6.87;100.00;96271.97;5011200;28;20223;-59
2022/04/05 11:37:03;;;;;;;4.57;4.27;;;;;;;6.47;100.00;96274.91;4950341;28;20309;-57
2022/04/05 11:39:36;;;;;;;4.53;4.23;;;;;;;6.27;100.00;96279.03;4936012;28;20300;-56
2022/04/05 11:42:04;;;;;;;4.40;4.10;;;;;;;6.35;100.00;96266.63;4935801;28;20229;-56
2022/04/05 11:44:33;;;;;;;5.03;4.73;;;;;;;6.41;100.00;96272.16;4950565;28;22878;-54
2022/04/05 11:47:01;;;;;;;4.70;4.40;;;;;;;6.40;100.00;96273.94;4967741;28;20256;-55
2022/04/05 11:49:41;;;;;;;4.70;4.40;;;;;;;6.41;100.00;96274.78;4942240;28;20495;-55
2022/04/05 11:52:11;;;;;;;4.27;3.87;;;;;;;6.62;100.00;96277.50;4949211;28;20765;-55